createdAt,value
2019-01-05T10:06:17.596Z,97439.79
2019-01-05T10:12:46.715Z,97439.79
2019-01-05T10:19:10.819Z,97423.79
2019-01-05T10:25:17.234Z,97454.91
2019-01-05T10:31:45.978Z,97428.91
2019-01-05T10:38:23.711Z,97417.61
2019-01-05T10:44:34.188Z,97413.56
2019-01-05T10:50:49.256Z,97430.81
2019-01-05T10:56:51.268Z,97412.94
2019-01-05T11:03:20.818Z,97376.27
2019-01-05T11:09:36.858Z,97376.27
2019-01-05T11:16:11.794Z,97397.88
2019-01-05T11:23:05.843Z,97401.86
2019-01-05T11:29:44.807Z,97394.12
2019-01-05T11:36:03.232Z,97369.83
2019-01-05T11:42:05.880Z,97374.14
2019-01-05T11:48:32.644Z,97337.73
2019-01-05T11:54:49.134Z,97354.23
2019-01-05T12:01:15.155Z,97356.66
2019-01-05T12:07:30.847Z,97345.55
2019-01-05T12:14:06.876Z,97349.05
2019-01-05T12:20:50.526Z,97349.05
2019-01-05T12:27:09.861Z,97360.90
2019-01-05T12:33:46.987Z,97360.62
2019-01-05T12:40:23.555Z,97340.70
2019-01-05T12:46:36.459Z,97309.65
2019-01-05T12:52:55.969Z,97344.48
2019-01-05T12:59:20.626Z,97344.48
2019-01-05T13:05:46.010Z,97377.62
2019-01-05T13:12:21.285Z,97369.50
2019-01-05T13:18:54.485Z,97393.86
2019-01-05T13:25:02.175Z,97393.86
2019-01-05T13:31:14.259Z,97415.06
2019-01-05T13:37:36.103Z,97415.06
2019-01-05T13:44:01.936Z,97410.52
2019-01-05T13:50:36.975Z,97431.06
2019-01-05T13:56:20.641Z,97437.21
2019-01-05T14:02:03.055Z,97437.21
2019-01-05T14:07:40.363Z,97423.47
2019-01-05T14:13:25.295Z,97415.38
2019-01-05T14:19:03.346Z,97445.87
2019-01-05T14:24:41.450Z,97453.25
2019-01-05T14:30:20.507Z,97439.98
2019-01-05T14:36:03.273Z,97451.55
2019-01-05T14:42:01.463Z,97458.58
2019-01-05T14:47:47.676Z,97471.82
2019-01-05T14:53:26.449Z,97484.77
2019-01-05T14:59:08.493Z,97462.63
2019-01-05T15:04:46.334Z,97472.34
2019-01-05T15:10:35.840Z,97494.47
2019-01-05T15:16:14.190Z,97486.08
2019-01-05T15:21:53.210Z,97486.08
2019-01-05T15:27:41.398Z,97487.51
2019-01-05T15:33:23.386Z,97480.48
2019-01-05T15:39:01.800Z,97468.09
2019-01-05T15:44:43.948Z,97473.20
2019-01-05T15:50:29.695Z,97488.89
2019-01-05T15:56:07.846Z,97496.98
2019-01-05T16:02:01.750Z,97495.39
2019-01-05T16:07:44.288Z,97509.41
2019-01-05T16:13:23.242Z,97510.77
2019-01-05T16:19:01.190Z,97508.56
2019-01-05T16:24:40.930Z,97527.53
2019-01-05T16:30:27.666Z,97545.88
2019-01-05T16:36:05.366Z,97530.77
2019-01-05T16:42:14.710Z,97534.02
2019-01-05T16:48:13.509Z,97520.78
2019-01-05T16:54:16.324Z,97528.91
2019-01-05T16:59:52.861Z,97528.91
2019-01-05T17:05:43.251Z,97527.56
2019-01-05T17:37:29.286Z,97568.59
2019-01-05T17:43:12.604Z,97557.25
2019-01-05T17:48:55.350Z,97559.17
2019-01-05T17:54:43.852Z,97547.59
2019-01-05T18:00:23.942Z,97567.31
2019-01-05T18:06:06.426Z,97582.97
2019-01-05T18:11:51.346Z,97582.97
2019-01-05T18:17:29.127Z,97558.93
2019-01-05T18:23:11.058Z,97558.93
2019-01-05T18:28:51.158Z,97580.84
2019-01-05T18:34:49.214Z,97580.06
2019-01-05T18:40:40.873Z,97590.37
2019-01-05T18:46:19.299Z,97598.47
2019-01-05T18:51:57.613Z,97624.69
2019-01-05T18:57:35.704Z,97624.69
2019-01-05T19:03:29.710Z,97612.26
2019-01-05T19:09:07.899Z,97611.19
2019-01-05T19:14:55.827Z,97649.24
2019-01-05T19:20:44.994Z,97616.55
2019-01-05T19:26:25.317Z,97624.62
2019-01-05T19:32:09.082Z,97615.70
2019-01-05T19:37:47.269Z,97622.73
2019-01-05T19:43:25.483Z,97609.77
2019-01-05T19:49:03.230Z,97591.89
2019-01-05T19:54:41.748Z,97581.34
2019-01-05T20:00:19.821Z,97607.59
2019-01-05T20:05:59.297Z,97596.55
2019-01-05T20:11:37.329Z,97602.52
2019-01-05T20:17:12.556Z,97606.56
2019-01-05T20:23:09.698Z,97600.92
2019-01-05T20:28:47.674Z,97589.30
2019-01-05T20:34:43.310Z,97635.53
2019-01-05T20:40:30.669Z,97609.88
2019-01-05T20:46:28.812Z,97619.33
2019-01-05T20:52:14.886Z,97615.28
2019-01-05T20:57:53.885Z,97644.41
2019-01-05T21:03:31.947Z,97618.80
2019-01-05T21:09:18.485Z,97618.80
2019-01-05T21:14:58.360Z,97618.02
2019-01-05T21:20:37.194Z,97620.18
2019-01-05T21:26:15.220Z,97609.38
2019-01-05T21:32:06.960Z,97599.36
2019-01-05T21:37:44.968Z,97646.05
2019-01-05T21:43:30.853Z,97624.08
2019-01-05T21:49:20.653Z,97619.70
2019-01-05T21:54:59.804Z,97620.19
2019-01-05T22:00:38.324Z,97602.12
2019-01-05T22:06:17.016Z,97602.12
2019-01-05T22:12:05.257Z,97599.95
2019-01-05T22:17:43.810Z,97599.95
2019-01-05T22:23:23.612Z,97635.41
2019-01-05T22:29:17.189Z,97611.11
2019-01-05T22:34:54.771Z,97621.67
2019-01-05T22:40:31.491Z,97606.00
2019-01-05T22:46:09.610Z,97600.64
2019-01-05T22:51:52.667Z,97617.66
2019-01-05T22:57:34.494Z,97617.66
2019-01-05T23:03:20.255Z,97589.84
2019-01-05T23:08:58.651Z,97588.52
2019-01-05T23:14:46.479Z,97611.48
2019-01-05T23:20:28.222Z,97611.48
2019-01-05T23:26:08.358Z,97596.91
2019-01-05T23:31:46.302Z,97586.89
2019-01-05T23:37:23.996Z,97572.85
2019-01-05T23:43:02.163Z,97578.00
2019-01-05T23:48:56.251Z,97562.86
2019-01-05T23:54:50.851Z,97562.86
